Terminal Aerodrome Forecast
Issued by NWS Twin Cities, MN

Home | Current Version | Previous Version | Text Only | Print | Product List | Glossary Off
Versions: 1 2 3 4 5 6 7 8 9 10 11 12 13 14 15 16 17

421
FTUS43 KMPX 272339
TAFEAU
TAF
KEAU 272339Z 2800/2824 09012KT 6SM -RA BR OVC080
     FM280400 08011KT P6SM OVC060
     FM280800 07010KT 6SM -SHRA BR OVC050
     FM282000 06008KT P6SM OVC090=

USA.gov is the U.S. government's official web portal to all federal, state and local government web resources and services.